sensor_id;sensor_type;location;lat;lon;timestamp;pressure;altitude;pressure_sealevel;temperature;humidity
70902;BME280;58548;47.210;8.618;2023-03-02T00:04:14;93734.59;;;9.56;34.55
70902;BME280;58548;47.210;8.618;2023-03-02T00:06:49;93765.03;;;9.84;34.87
70902;BME280;58548;47.210;8.618;2023-03-02T00:09:17;93833.00;;;10.18;34.45
70902;BME280;58548;47.210;8.618;2023-03-02T00:11:43;93840.91;;;10.31;34.66
70902;BME280;58548;47.210;8.618;2023-03-02T00:14:10;93786.31;;;9.88;34.50
70902;BME280;58548;47.210;8.618;2023-03-02T00:16:36;93852.97;;;10.32;34.54
70902;BME280;58548;47.210;8.618;2023-03-02T00:19:05;93823.16;;;10.13;35.06
70902;BME280;58548;47.210;8.618;2023-03-02T00:21:31;93854.38;;;10.35;34.56
70902;BME280;58548;47.210;8.618;2023-03-02T00:23:57;93859.81;;;10.33;34.82
70902;BME280;58548;47.210;8.618;2023-03-02T00:26:23;93858.19;;;10.32;34.10
70902;BME280;58548;47.210;8.618;2023-03-02T00:28:49;93857.75;;;10.29;34.40
70902;BME280;58548;47.210;8.618;2023-03-02T00:31:17;93850.28;;;10.19;34.67
70902;BME280;58548;47.210;8.618;2023-03-02T00:33:45;93772.34;;;9.67;34.65
70902;BME280;58548;47.210;8.618;2023-03-02T00:36:18;93764.28;;;9.62;34.91
70902;BME280;58548;47.210;8.618;2023-03-02T00:38:48;93859.97;;;10.25;35.05
70902;BME280;58548;47.210;8.618;2023-03-02T00:41:17;93857.34;;;10.25;34.29
70902;BME280;58548;47.210;8.618;2023-03-02T00:43:46;93855.34;;;10.27;34.52
70902;BME280;58548;47.210;8.618;2023-03-02T00:46:18;93854.97;;;10.30;34.95
70902;BME280;58548;47.210;8.618;2023-03-02T00:48:44;93851.97;;;10.33;34.51
70902;BME280;58548;47.210;8.618;2023-03-02T00:51:13;93841.53;;;10.33;34.84
70902;BME280;58548;47.210;8.618;2023-03-02T00:53:42;93744.28;;;9.69;34.96
70902;BME280;58548;47.210;8.618;2023-03-02T00:56:09;93837.69;;;10.29;35.06
70902;BME280;58548;47.210;8.618;2023-03-02T00:58:36;93840.91;;;10.31;34.68
70902;BME280;58548;47.210;8.618;2023-03-02T01:01:10;93832.09;;;10.32;34.17
70902;BME280;58548;47.210;8.618;2023-03-02T01:03:36;93745.53;;;9.80;34.83
70902;BME280;58548;47.210;8.618;2023-03-02T01:06:16;93791.66;;;10.15;34.89
70902;BME280;58548;47.210;8.618;2023-03-02T01:08:44;93825.84;;;10.26;34.93
70902;BME280;58548;47.210;8.618;2023-03-02T01:11:15;93797.88;;;10.14;34.81
70902;BME280;58548;47.210;8.618;2023-03-02T01:13:42;93693.81;;;9.42;34.89
70902;BME280;58548;47.210;8.618;2023-03-02T01:16:08;93761.97;;;9.80;34.83
70902;BME280;58548;47.210;8.618;2023-03-02T01:18:34;93822.78;;;10.16;34.90
70902;BME280;58548;47.210;8.618;2023-03-02T01:21:14;93818.69;;;10.07;34.75
70902;BME280;58548;47.210;8.618;2023-03-02T01:23:41;93797.34;;;9.90;35.31
70902;BME280;58548;47.210;8.618;2023-03-02T01:26:07;93784.28;;;9.83;34.90
70902;BME280;58548;47.210;8.618;2023-03-02T01:28:36;93694.66;;;9.20;35.09
70902;BME280;58548;47.210;8.618;2023-03-02T01:31:02;93817.66;;;9.94;34.88
70902;BME280;58548;47.210;8.618;2023-03-02T01:33:29;93694.03;;;9.18;35.29
70902;BME280;58548;47.210;8.618;2023-03-02T01:35:55;93686.97;;;9.12;34.87
70902;BME280;58548;47.210;8.618;2023-03-02T01:38:24;93675.28;;;9.01;35.26
70902;BME280;58548;47.210;8.618;2023-03-02T01:40:52;93793.66;;;9.77;35.28
70902;BME280;58548;47.210;8.618;2023-03-02T01:43:18;93778.72;;;9.64;34.90
70902;BME280;58548;47.210;8.618;2023-03-02T01:48:15;93671.06;;;8.72;35.65
70902;BME280;58548;47.210;8.618;2023-03-02T01:50:45;93708.94;;;8.96;35.85
70902;BME280;58548;47.210;8.618;2023-03-02T01:53:15;93767.16;;;9.39;35.55
70902;BME280;58548;47.210;8.618;2023-03-02T01:55:42;93699.59;;;8.80;35.36
70902;BME280;58548;47.210;8.618;2023-03-02T01:58:12;93657.97;;;8.43;35.84
70902;BME280;58548;47.210;8.618;2023-03-02T02:00:43;93683.31;;;8.50;35.86
70902;BME280;58548;47.210;8.618;2023-03-02T02:03:16;93776.53;;;9.11;36.01
70902;BME280;58548;47.210;8.618;2023-03-02T02:05:57;93666.72;;;8.36;36.02
70902;BME280;58548;47.210;8.618;2023-03-02T02:08:25;93778.47;;;9.02;36.17
70902;BME280;58548;47.210;8.618;2023-03-02T02:10:52;93741.25;;;8.80;36.44
70902;BME280;58548;47.210;8.618;2023-03-02T02:13:21;93653.78;;;8.21;36.49
70902;BME280;58548;47.210;8.618;2023-03-02T02:15:47;93661.03;;;8.25;36.59
70902;BME280;58548;47.210;8.618;2023-03-02T02:18:17;93759.34;;;8.88;36.79
70902;BME280;58548;47.210;8.618;2023-03-02T02:20:47;93726.25;;;8.60;36.48
70902;BME280;58548;47.210;8.618;2023-03-02T02:26:14;93769.94;;;8.87;36.78
70902;BME280;58548;47.210;8.618;2023-03-02T02:34:00;93749.66;;;8.82;37.12
70902;BME280;58548;47.210;8.618;2023-03-02T02:36:34;93761.34;;;8.86;37.08
70902;BME280;58548;47.210;8.618;2023-03-02T02:39:10;93751.53;;;8.88;36.81
70902;BME280;58548;47.210;8.618;2023-03-02T02:41:41;93756.53;;;8.90;36.95
70902;BME280;58548;47.210;8.618;2023-03-02T02:44:14;93759.94;;;8.90;37.07
70902;BME280;58548;47.210;8.618;2023-03-02T02:46:42;93758.94;;;8.92;37.17
70902;BME280;58548;47.210;8.618;2023-03-02T02:51:48;93756.53;;;8.90;37.32
70902;BME280;58548;47.210;8.618;2023-03-02T02:54:18;93684.94;;;8.36;37.71
70902;BME280;58548;47.210;8.618;2023-03-02T02:56:46;93737.13;;;8.71;37.19
70902;BME280;58548;47.210;8.618;2023-03-02T02:59:40;93755.88;;;8.81;37.42
70902;BME280;58548;47.210;8.618;2023-03-02T03:02:08;93761.19;;;8.73;37.13
70902;BME280;58548;47.210;8.618;2023-03-02T03:04:39;93754.06;;;8.82;37.42
70902;BME280;58548;47.210;8.618;2023-03-02T03:07:09;93703.28;;;8.49;37.69
70902;BME280;58548;47.210;8.618;2023-03-02T03:09:42;93749.63;;;8.75;37.10
70902;BME280;58548;47.210;8.618;2023-03-02T03:12:21;93712.81;;;8.57;37.18
70902;BME280;58548;47.210;8.618;2023-03-02T03:14:51;93672.03;;;8.27;37.42
70902;BME280;58548;47.210;8.618;2023-03-02T03:17:17;93595.81;;;7.83;36.69
70902;BME280;58548;47.210;8.618;2023-03-02T03:19:45;93764.34;;;8.90;36.96
70902;BME280;58548;47.210;8.618;2023-03-02T03:22:13;93757.97;;;8.93;36.81
70902;BME280;58548;47.210;8.618;2023-03-02T03:24:42;93756.91;;;8.87;37.27
70902;BME280;58548;47.210;8.618;2023-03-02T03:27:12;93735.16;;;8.73;36.88
70902;BME280;58548;47.210;8.618;2023-03-02T03:29:41;93770.97;;;8.93;37.42
70902;BME280;58548;47.210;8.618;2023-03-02T03:32:07;93774.22;;;8.95;37.04
70902;BME280;58548;47.210;8.618;2023-03-02T03:34:34;93662.25;;;8.29;37.59
70902;BME280;58548;47.210;8.618;2023-03-02T03:37:10;93678.44;;;8.47;37.00
70902;BME280;58548;47.210;8.618;2023-03-02T03:39:41;93730.47;;;8.83;37.27
70902;BME280;58548;47.210;8.618;2023-03-02T03:42:10;93743.72;;;8.88;37.37
70902;BME280;58548;47.210;8.618;2023-03-02T03:44:36;93769.66;;;9.03;36.80
70902;BME280;58548;47.210;8.618;2023-03-02T03:47:05;93652.84;;;8.28;37.15
70902;BME280;58548;47.210;8.618;2023-03-02T03:49:33;93768.25;;;9.01;36.99
70902;BME280;58548;47.210;8.618;2023-03-02T03:52:01;93740.25;;;8.81;37.28
70902;BME280;58548;47.210;8.618;2023-03-02T03:54:28;93769.06;;;9.01;37.44
70902;BME280;58548;47.210;8.618;2023-03-02T03:56:54;93777.06;;;9.00;37.23
70902;BME280;58548;47.210;8.618;2023-03-02T03:59:23;93775.25;;;9.00;36.85
70902;BME280;58548;47.210;8.618;2023-03-02T04:01:57;93775.09;;;9.02;37.44
70902;BME280;58548;47.210;8.618;2023-03-02T04:04:31;93782.28;;;9.00;37.38
70902;BME280;58548;47.210;8.618;2023-03-02T04:07:00;93786.75;;;9.06;37.10
70902;BME280;58548;47.210;8.618;2023-03-02T04:09:26;93692.44;;;8.45;37.30
70902;BME280;58548;47.210;8.618;2023-03-02T04:11:55;93676.72;;;8.32;37.40
70902;BME280;58548;47.210;8.618;2023-03-02T04:14:25;93676.25;;;8.28;37.25
70902;BME280;58548;47.210;8.618;2023-03-02T04:16:51;93753.63;;;8.78;37.08
70902;BME280;58548;47.210;8.618;2023-03-02T04:19:17;93660.16;;;8.18;37.24
70902;BME280;58548;47.210;8.618;2023-03-02T04:21:50;93678.63;;;8.23;37.22
70902;BME280;58548;47.210;8.618;2023-03-02T04:24:21;93762.31;;;8.85;37.47
70902;BME280;58548;47.210;8.618;2023-03-02T04:26:48;93724.00;;;8.57;37.34
70902;BME280;58548;47.210;8.618;2023-03-02T04:29:15;93793.13;;;9.03;37.10
70902;BME280;58548;47.210;8.618;2023-03-02T04:31:42;93798.56;;;9.09;37.38
70902;BME280;58548;47.210;8.618;2023-03-02T04:34:10;93792.56;;;9.08;37.11
70902;BME280;58548;47.210;8.618;2023-03-02T04:36:40;93690.41;;;8.41;37.15
70902;BME280;58548;47.210;8.618;2023-03-02T04:39:09;93740.00;;;8.76;37.51
70902;BME280;58548;47.210;8.618;2023-03-02T04:41:36;93742.34;;;8.71;37.18
70902;BME280;58548;47.210;8.618;2023-03-02T04:44:04;93693.25;;;8.46;37.18
70902;BME280;58548;47.210;8.618;2023-03-02T04:46:32;93793.19;;;9.10;36.77
70902;BME280;58548;47.210;8.618;2023-03-02T04:48:59;93744.84;;;8.79;36.75
70902;BME280;58548;47.210;8.618;2023-03-02T04:51:32;93728.28;;;8.65;36.73
70902;BME280;58548;47.210;8.618;2023-03-02T04:54:04;93746.19;;;8.75;36.67
70902;BME280;58548;47.210;8.618;2023-03-02T04:56:32;93795.09;;;9.01;36.93
70902;BME280;58548;47.210;8.618;2023-03-02T04:58:58;93804.31;;;8.97;37.24
70902;BME280;58548;47.210;8.618;2023-03-02T05:01:25;93694.59;;;8.20;36.91
70902;BME280;58548;47.210;8.618;2023-03-02T05:03:53;93698.19;;;8.19;37.18
70902;BME280;58548;47.210;8.618;2023-03-02T05:06:20;93771.13;;;8.63;36.93
70902;BME280;58548;47.210;8.618;2023-03-02T05:08:47;93731.88;;;8.27;37.21
70902;BME280;58548;47.210;8.618;2023-03-02T05:11:16;93696.34;;;7.98;36.96
70902;BME280;58548;47.210;8.618;2023-03-02T05:13:55;93805.88;;;8.55;37.15
70902;BME280;58548;47.210;8.618;2023-03-02T05:16:26;93795.91;;;8.43;36.91
70902;BME280;58548;47.210;8.618;2023-03-02T05:18:56;93808.13;;;8.43;37.02
70902;BME280;58548;47.210;8.618;2023-03-02T05:21:23;93809.28;;;8.40;37.29
70902;BME280;58548;47.210;8.618;2023-03-02T05:23:49;93802.22;;;8.34;37.13
70902;BME280;58548;47.210;8.618;2023-03-02T05:26:15;93813.91;;;8.23;37.19
70902;BME280;58548;47.210;8.618;2023-03-02T05:28:42;93815.88;;;8.21;37.29
70902;BME280;58548;47.210;8.618;2023-03-02T05:31:18;93810.13;;;8.11;37.05
70902;BME280;58548;47.210;8.618;2023-03-02T05:33:48;93798.59;;;7.98;37.56
70902;BME280;58548;47.210;8.618;2023-03-02T05:36:14;93806.28;;;8.07;37.75
70902;BME280;58548;47.210;8.618;2023-03-02T05:38:42;93709.59;;;7.36;37.51
70902;BME280;58548;47.210;8.618;2023-03-02T05:41:09;93701.88;;;7.28;37.50
70902;BME280;58548;47.210;8.618;2023-03-02T05:43:35;93826.34;;;7.98;37.74
70902;BME280;58548;47.210;8.618;2023-03-02T05:46:01;93830.78;;;7.97;37.85
70902;BME280;58548;47.210;8.618;2023-03-02T05:48:33;93839.56;;;7.96;37.98
70902;BME280;58548;47.210;8.618;2023-03-02T05:50:59;93850.31;;;7.93;38.14
70902;BME280;58548;47.210;8.618;2023-03-02T05:53:25;93819.66;;;7.74;37.75
70902;BME280;58548;47.210;8.618;2023-03-02T05:55:51;93752.31;;;7.34;37.77
70902;BME280;58548;47.210;8.618;2023-03-02T05:58:22;93820.91;;;7.78;38.18
70902;BME280;58548;47.210;8.618;2023-03-02T06:00:48;93710.19;;;7.08;38.06
70902;BME280;58548;47.210;8.618;2023-03-02T06:03:16;93853.19;;;7.98;37.84
70902;BME280;58548;47.210;8.618;2023-03-02T06:05:43;93856.13;;;7.95;38.33
70902;BME280;58548;47.210;8.618;2023-03-02T06:08:17;93788.69;;;7.49;38.50
70902;BME280;58548;47.210;8.618;2023-03-02T06:10:46;93759.03;;;7.28;37.90
70902;BME280;58548;47.210;8.618;2023-03-02T06:13:12;93756.50;;;7.35;37.94
70902;BME280;58548;47.210;8.618;2023-03-02T06:15:40;93779.00;;;7.43;38.19
70902;BME280;58548;47.210;8.618;2023-03-02T06:18:08;93872.28;;;8.06;38.44
70902;BME280;58548;47.210;8.618;2023-03-02T06:20:37;93861.63;;;8.00;37.99
70902;BME280;58548;47.210;8.618;2023-03-02T06:23:06;93873.47;;;8.18;38.43
70902;BME280;58548;47.210;8.618;2023-03-02T06:25:34;93867.91;;;8.06;38.50
70902;BME280;58548;47.210;8.618;2023-03-02T06:28:01;93791.94;;;7.66;38.04
70902;BME280;58548;47.210;8.618;2023-03-02T06:30:27;93885.22;;;8.29;38.20
70902;BME280;58548;47.210;8.618;2023-03-02T06:32:56;93852.91;;;8.23;38.42
70902;BME280;58548;47.210;8.618;2023-03-02T06:35:25;93794.81;;;7.86;38.21
70902;BME280;58548;47.210;8.618;2023-03-02T06:37:51;93785.38;;;7.85;38.25
70902;BME280;58548;47.210;8.618;2023-03-02T06:40:19;93902.06;;;8.63;38.31
70902;BME280;58548;47.210;8.618;2023-03-02T06:42:48;93903.41;;;8.74;38.16
70902;BME280;58548;47.210;8.618;2023-03-02T06:45:14;93868.41;;;8.62;37.92
70902;BME280;58548;47.210;8.618;2023-03-02T06:47:43;93881.56;;;8.75;38.07
70902;BME280;58548;47.210;8.618;2023-03-02T06:50:09;93881.41;;;8.77;38.13
70902;BME280;58548;47.210;8.618;2023-03-02T06:52:35;93877.34;;;8.74;38.30
70902;BME280;58548;47.210;8.618;2023-03-02T06:55:02;93879.50;;;8.85;38.52
70902;BME280;58548;47.210;8.618;2023-03-02T06:57:30;93913.41;;;9.07;38.10
70902;BME280;58548;47.210;8.618;2023-03-02T07:00:05;93926.28;;;9.15;38.44
70902;BME280;58548;47.210;8.618;2023-03-02T07:02:35;93930.56;;;9.23;38.69
70902;BME280;58548;47.210;8.618;2023-03-02T07:05:04;93876.41;;;8.97;38.42
70902;BME280;58548;47.210;8.618;2023-03-02T07:07:32;93905.69;;;9.20;37.73
70902;BME280;58548;47.210;8.618;2023-03-02T07:09:58;93932.97;;;9.40;37.99
70902;BME280;58548;47.210;8.618;2023-03-02T07:12:27;93933.81;;;9.47;38.23
70902;BME280;58548;47.210;8.618;2023-03-02T07:14:53;93921.97;;;9.44;37.80
70902;BME280;58548;47.210;8.618;2023-03-02T07:17:19;93920.97;;;9.45;38.03
70902;BME280;58548;47.210;8.618;2023-03-02T07:19:49;93944.44;;;9.67;37.53
70902;BME280;58548;47.210;8.618;2023-03-02T07:22:17;93847.28;;;9.08;37.99
70902;BME280;58548;47.210;8.618;2023-03-02T07:24:45;93955.75;;;9.74;37.63
70902;BME280;58548;47.210;8.618;2023-03-02T07:27:13;93943.56;;;9.81;37.93
70902;BME280;58548;47.210;8.618;2023-03-02T07:29:44;93861.97;;;9.38;37.89
70902;BME280;58548;47.210;8.618;2023-03-02T07:32:12;93947.88;;;9.96;37.22
70902;BME280;58548;47.210;8.618;2023-03-02T07:34:41;93854.31;;;9.36;37.57
70902;BME280;58548;47.210;8.618;2023-03-02T07:37:07;93964.63;;;10.08;37.46
70902;BME280;58548;47.210;8.618;2023-03-02T07:39:35;93967.66;;;10.12;37.16
70902;BME280;58548;47.210;8.618;2023-03-02T07:42:03;93891.91;;;9.70;37.26
70902;BME280;58548;47.210;8.618;2023-03-02T07:44:34;93965.34;;;10.24;37.56
70902;BME280;58548;47.210;8.618;2023-03-02T07:47:03;93969.00;;;10.30;37.48
70902;BME280;58548;47.210;8.618;2023-03-02T07:49:31;93843.25;;;9.56;37.24
70902;BME280;58548;47.210;8.618;2023-03-02T07:51:57;93956.38;;;10.33;37.13
70902;BME280;58548;47.210;8.618;2023-03-02T07:54:23;93969.53;;;10.47;36.87
70902;BME280;58548;47.210;8.618;2023-03-02T07:56:51;93950.16;;;10.34;36.45
70902;BME280;58548;47.210;8.618;2023-03-02T07:59:17;93949.63;;;10.39;36.79
70902;BME280;58548;47.210;8.618;2023-03-02T08:01:43;93884.09;;;9.99;36.29
70902;BME280;58548;47.210;8.618;2023-03-02T08:04:08;93972.47;;;10.65;36.10
70902;BME280;58548;47.210;8.618;2023-03-02T08:06:39;93799.94;;;9.55;36.45
70902;BME280;58548;47.210;8.618;2023-03-02T08:09:05;93976.78;;;10.80;35.88
70902;BME280;58548;47.210;8.618;2023-03-02T08:11:33;93979.81;;;10.90;36.32
70902;BME280;58548;47.210;8.618;2023-03-02T08:14:02;93871.03;;;10.34;35.59
70902;BME280;58548;47.210;8.618;2023-03-02T08:16:29;93957.31;;;10.89;36.07
70902;BME280;58548;47.210;8.618;2023-03-02T08:18:57;93969.84;;;11.07;36.33
70902;BME280;58548;47.210;8.618;2023-03-02T08:21:27;93847.38;;;10.35;35.71
70902;BME280;58548;47.210;8.618;2023-03-02T08:23:56;93967.09;;;11.22;35.85
70902;BME280;58548;47.210;8.618;2023-03-02T08:26:24;93965.28;;;11.29;36.05
70902;BME280;58548;47.210;8.618;2023-03-02T08:28:50;93968.75;;;11.37;35.32
70902;BME280;58548;47.210;8.618;2023-03-02T08:31:16;93983.84;;;11.48;35.20
70902;BME280;58548;47.210;8.618;2023-03-02T08:33:47;93885.56;;;10.92;35.17
70902;BME280;58548;47.210;8.618;2023-03-02T08:36:18;93918.44;;;11.21;35.53
70902;BME280;58548;47.210;8.618;2023-03-02T08:38:45;93876.56;;;11.01;35.13
70902;BME280;58548;47.210;8.618;2023-03-02T08:41:15;93969.59;;;11.71;35.11
70902;BME280;58548;47.210;8.618;2023-03-02T08:43:42;93967.22;;;11.76;34.09
70902;BME280;58548;47.210;8.618;2023-03-02T08:46:16;93952.72;;;11.73;34.14
70902;BME280;58548;47.210;8.618;2023-03-02T08:48:45;93973.44;;;11.88;33.09
70902;BME280;58548;47.210;8.618;2023-03-02T08:51:18;93991.59;;;11.97;33.46
70902;BME280;58548;47.210;8.618;2023-03-02T08:53:49;93985.56;;;11.96;33.18
70902;BME280;58548;47.210;8.618;2023-03-02T08:58:45;93994.66;;;12.14;32.99
70902;BME280;58548;47.210;8.618;2023-03-02T09:01:21;93881.28;;;11.53;32.41
70902;BME280;58548;47.210;8.618;2023-03-02T09:03:47;93880.69;;;11.51;32.66
70902;BME280;58548;47.210;8.618;2023-03-02T09:06:16;93982.16;;;12.23;32.27
70902;BME280;58548;47.210;8.618;2023-03-02T09:08:42;93989.19;;;12.29;32.39
70902;BME280;58548;47.210;8.618;2023-03-02T09:11:14;93990.22;;;12.34;32.77
70902;BME280;58548;47.210;8.618;2023-03-02T09:13:40;93942.47;;;12.19;32.28
70902;BME280;58548;47.210;8.618;2023-03-02T09:16:07;93990.78;;;12.50;32.21
70902;BME280;58548;47.210;8.618;2023-03-02T09:18:35;93892.56;;;11.80;32.10
70902;BME280;58548;47.210;8.618;2023-03-02T09:21:02;93908.06;;;11.95;31.79
70902;BME280;58548;47.210;8.618;2023-03-02T09:23:31;93992.81;;;12.48;31.96
70902;BME280;58548;47.210;8.618;2023-03-02T09:25:57;93987.78;;;12.46;32.13
70902;BME280;58548;47.210;8.618;2023-03-02T09:28:25;93998.25;;;12.46;31.70
70902;BME280;58548;47.210;8.618;2023-03-02T09:30:53;93875.44;;;11.71;31.53
70902;BME280;58548;47.210;8.618;2023-03-02T09:33:20;93989.00;;;12.37;31.67
70902;BME280;58548;47.210;8.618;2023-03-02T09:35:46;93976.28;;;12.41;32.00
70902;BME280;58548;47.210;8.618;2023-03-02T09:38:16;93993.81;;;12.54;31.72
70902;BME280;58548;47.210;8.618;2023-03-02T09:52:13;94022.78;;;12.86;31.86
70902;BME280;58548;47.210;8.618;2023-03-02T09:54:31;93903.41;;;12.24;31.13
70902;BME280;58548;47.210;8.618;2023-03-02T09:56:58;94012.06;;;12.94;30.63
70902;BME280;58548;47.210;8.618;2023-03-02T10:04:52;93989.50;;;12.93;30.34
70902;BME280;58548;47.210;8.618;2023-03-02T10:07:28;93994.72;;;13.00;30.35
70902;BME280;58548;47.210;8.618;2023-03-02T10:15:25;93924.06;;;12.66;30.39
70902;BME280;58548;47.210;8.618;2023-03-02T10:18:31;94012.78;;;13.28;30.14
70902;BME280;58548;47.210;8.618;2023-03-02T10:21:00;94027.06;;;13.39;30.40
70902;BME280;58548;47.210;8.618;2023-03-02T10:23:38;93934.88;;;12.90;30.44
70902;BME280;58548;47.210;8.618;2023-03-02T10:29:00;94000.00;;;13.52;30.45
70902;BME280;58548;47.210;8.618;2023-03-02T10:31:30;93929.91;;;13.13;30.07
70902;BME280;58548;47.210;8.618;2023-03-02T10:34:00;93924.88;;;13.19;29.53
70902;BME280;58548;47.210;8.618;2023-03-02T10:36:36;94025.06;;;13.80;29.56
70902;BME280;58548;47.210;8.618;2023-03-02T10:39:13;94041.81;;;13.79;29.72
70902;BME280;58548;47.210;8.618;2023-03-02T10:41:57;93927.91;;;13.16;29.60
70902;BME280;58548;47.210;8.618;2023-03-02T10:44:37;94023.03;;;13.82;29.86
70902;BME280;58548;47.210;8.618;2023-03-02T10:47:05;93926.66;;;13.25;29.63
70902;BME280;58548;47.210;8.618;2023-03-02T10:54:39;94027.53;;;14.07;29.11
70902;BME280;58548;47.210;8.618;2023-03-02T11:02:50;94044.31;;;14.38;29.01
70902;BME280;58548;47.210;8.618;2023-03-02T11:05:21;94044.44;;;14.43;28.47
70902;BME280;58548;47.210;8.618;2023-03-02T11:08:00;94040.13;;;14.55;28.11
70902;BME280;58548;47.210;8.618;2023-03-02T11:10:35;94022.84;;;14.41;28.38
70902;BME280;58548;47.210;8.618;2023-03-02T11:13:15;93982.22;;;14.18;28.41
70902;BME280;58548;47.210;8.618;2023-03-02T11:15:49;93932.59;;;14.10;28.27
70902;BME280;58548;47.210;8.618;2023-03-02T11:21:09;94035.19;;;14.91;28.27
70902;BME280;58548;47.210;8.618;2023-03-02T11:26:33;94031.88;;;15.33;27.69
70902;BME280;58548;47.210;8.618;2023-03-02T11:29:28;94032.78;;;15.45;27.78
70902;BME280;58548;47.210;8.618;2023-03-02T11:42:46;94027.94;;;16.22;27.00
70902;BME280;58548;47.210;8.618;2023-03-02T11:47:46;93936.00;;;15.90;26.47
70902;BME280;58548;47.210;8.618;2023-03-02T11:50:15;93929.00;;;15.83;26.33
70902;BME280;58548;47.210;8.618;2023-03-02T11:52:47;94014.31;;;16.37;24.97
70902;BME280;58548;47.210;8.618;2023-03-02T11:55:23;94021.88;;;16.45;25.97
70902;BME280;58548;47.210;8.618;2023-03-02T11:58:02;94005.94;;;16.28;25.93
70902;BME280;58548;47.210;8.618;2023-03-02T12:00:38;94037.47;;;16.47;25.85
70902;BME280;58548;47.210;8.618;2023-03-02T12:06:03;94014.31;;;16.37;26.08
70902;BME280;58548;47.210;8.618;2023-03-02T12:08:43;94004.81;;;16.36;26.19
70902;BME280;58548;47.210;8.618;2023-03-02T12:13:57;94027.06;;;16.40;25.31
70902;BME280;58548;47.210;8.618;2023-03-02T12:16:38;94025.91;;;16.36;26.04
70902;BME280;58548;47.210;8.618;2023-03-02T12:19:26;94005.69;;;16.18;26.00
70902;BME280;58548;47.210;8.618;2023-03-02T12:21:59;94030.56;;;16.22;26.02
70902;BME280;58548;47.210;8.618;2023-03-02T12:24:29;94031.28;;;16.29;25.90
70902;BME280;58548;47.210;8.618;2023-03-02T12:27:19;94020.25;;;16.32;26.11
70902;BME280;58548;47.210;8.618;2023-03-02T12:30:07;94017.41;;;16.34;26.10
70902;BME280;58548;47.210;8.618;2023-03-02T12:32:34;94020.19;;;16.39;26.31
70902;BME280;58548;47.210;8.618;2023-03-02T12:35:11;93975.47;;;16.20;26.14
70902;BME280;58548;47.210;8.618;2023-03-02T12:37:53;94019.06;;;16.58;25.90
70902;BME280;58548;47.210;8.618;2023-03-02T12:40:56;93926.88;;;16.04;25.86
70902;BME280;58548;47.210;8.618;2023-03-02T12:43:36;94016.63;;;16.69;25.86
70902;BME280;58548;47.210;8.618;2023-03-02T12:51:52;93913.81;;;16.21;25.65
70902;BME280;58548;47.210;8.618;2023-03-02T12:54:23;94011.94;;;16.95;25.71
70902;BME280;58548;47.210;8.618;2023-03-02T12:57:05;93911.53;;;16.49;25.45
70902;BME280;58548;47.210;8.618;2023-03-02T12:59:34;93892.84;;;16.50;25.47
70902;BME280;58548;47.210;8.618;2023-03-02T13:02:30;93993.91;;;17.27;25.01
70902;BME280;58548;47.210;8.618;2023-03-02T13:05:07;93981.28;;;17.29;25.22
70902;BME280;58548;47.210;8.618;2023-03-02T13:07:37;94007.75;;;17.46;24.58
70902;BME280;58548;47.210;8.618;2023-03-02T13:13:15;94004.72;;;17.55;25.08
70902;BME280;58548;47.210;8.618;2023-03-02T13:15:48;94001.09;;;17.73;24.35
70902;BME280;58548;47.210;8.618;2023-03-02T13:18:15;93927.50;;;17.47;24.70
70902;BME280;58548;47.210;8.618;2023-03-02T13:20:41;93996.09;;;18.17;24.81
70902;BME280;58548;47.210;8.618;2023-03-02T13:23:12;93977.03;;;18.32;23.82
70902;BME280;58548;47.210;8.618;2023-03-02T13:26:05;93983.44;;;18.53;23.39
70902;BME280;58548;47.210;8.618;2023-03-02T13:31:21;93977.19;;;19.16;23.08
70902;BME280;58548;47.210;8.618;2023-03-02T13:33:49;93915.16;;;18.90;22.83
70902;BME280;58548;47.210;8.618;2023-03-02T13:36:27;93916.91;;;19.01;22.99
70902;BME280;58548;47.210;8.618;2023-03-02T13:38:58;93977.31;;;19.49;23.04
70902;BME280;58548;47.210;8.618;2023-03-02T13:41:30;93914.34;;;19.06;22.69
70902;BME280;58548;47.210;8.618;2023-03-02T13:43:58;93992.19;;;19.55;22.89
70902;BME280;58548;47.210;8.618;2023-03-02T13:46:35;94008.22;;;19.65;22.64
70902;BME280;58548;47.210;8.618;2023-03-02T13:49:05;93986.97;;;19.38;22.67
70902;BME280;58548;47.210;8.618;2023-03-02T13:51:36;93994.28;;;19.31;22.92
70902;BME280;58548;47.210;8.618;2023-03-02T13:54:11;93982.03;;;19.02;22.84
70902;BME280;58548;47.210;8.618;2023-03-02T13:56:39;94000.13;;;19.10;23.14
70902;BME280;58548;47.210;8.618;2023-03-02T13:59:13;93927.03;;;18.31;23.18
70902;BME280;58548;47.210;8.618;2023-03-02T14:01:39;94016.16;;;18.87;22.98
70902;BME280;58548;47.210;8.618;2023-03-02T14:04:15;93920.59;;;18.21;22.91
70902;BME280;58548;47.210;8.618;2023-03-02T14:06:45;94006.19;;;18.72;23.53
70902;BME280;58548;47.210;8.618;2023-03-02T14:09:12;94011.97;;;18.68;23.11
70902;BME280;58548;47.210;8.618;2023-03-02T14:11:42;93976.31;;;18.37;23.45
70902;BME280;58548;47.210;8.618;2023-03-02T14:14:23;94012.28;;;18.38;23.86
70902;BME280;58548;47.210;8.618;2023-03-02T14:16:56;94008.91;;;18.08;23.61
70902;BME280;58548;47.210;8.618;2023-03-02T14:19:25;93987.28;;;17.83;24.01
70902;BME280;58548;47.210;8.618;2023-03-02T14:21:50;93943.84;;;17.61;24.11
70902;BME280;58548;47.210;8.618;2023-03-02T14:24:16;94005.53;;;18.13;24.27
70902;BME280;58548;47.210;8.618;2023-03-02T14:26:46;94009.03;;;18.02;23.82
70902;BME280;58548;47.210;8.618;2023-03-02T14:29:27;94008.34;;;17.94;24.50
70902;BME280;58548;47.210;8.618;2023-03-02T14:32:00;94003.28;;;17.76;24.32
70902;BME280;58548;47.210;8.618;2023-03-02T14:34:32;94006.53;;;17.66;24.30
70902;BME280;58548;47.210;8.618;2023-03-02T14:37:03;93963.97;;;17.22;24.97
70902;BME280;58548;47.210;8.618;2023-03-02T14:39:37;94015.41;;;17.48;24.63
70902;BME280;58548;47.210;8.618;2023-03-02T14:42:07;94009.47;;;17.41;25.13
70902;BME280;58548;47.210;8.618;2023-03-02T14:44:38;94002.31;;;17.53;24.66
70902;BME280;58548;47.210;8.618;2023-03-02T14:47:04;93966.22;;;17.30;25.00
70902;BME280;58548;47.210;8.618;2023-03-02T14:49:32;93928.09;;;17.09;24.57
70902;BME280;58548;47.210;8.618;2023-03-02T14:52:05;94016.09;;;17.55;24.62